Airfield :
LOGIN :

Register | Disclaimer

   EN    FR    IT 

 










Legend :    VFR   Marginal VFR   IFR   Intensive IFR   Very Intensive IFR
Visi :
Ceiling :
>= 8 km
>= 3000ft
5 to 8 km
1000 to 3000 ft
1500m to 5 km
500 to 1000 ft
800 to 1500m
200 to 500 ft
< 800m
< 200 ft
Symbols :   Thunderstorms  Fog  Heavy snow  Heavy precipitations  Wind > 20 kt
SIGMETs :     Misc.  Thunderstorms  Icing  Turbulence  Mountain Waves  Volcanic Ashes







- Airport Elevation : 1966 ft
- IATA code : SGE


EDGS - Siegerland

EXPIRED METARs :
  • 231850Z 34017KT 9999 RA BKN005 06/06 Q1015
  • 231820Z 32016KT 290V360 9999 RA BKN004 06/06 Q1014
  • 231750Z 34015KT 8000 RA BKN003 06/06 Q1013

TAF COR TAF EDGS
Valid from the 23 at 18:00 until the 24 at 03:00 UTC


231754Z 2318/2403 33015G25KT 8000 BKN005
TEMPO 2318/2321 2500 RA BR OVC002
BECMG 2323/2402 30010KT
No reported NOTAMs for that airfield.
2 SIGMETs reported for the Langen FIR (EDGG) :
 
Severe turbulence
EDGG SIGMET 11 VALID 232000/232100 EDZF
EDGG LANGEN FIR SEV TURB FCST S OF N4900 SFC/FL100 MOV SE WKN=
Severe turbulence
EDGG SIGMET 10 VALID 231730/232130 EDZF
EDGG LANGEN FIR SEV TURB FCST WI N5204 E00901 - N5127 E00910 - N5124 E01046 - N5030 E01048 - N4920 E00744 - N5034 E00627 - N5120 E00713 - N5204 E00901 FL160/245 MOV E WKN=



MET'MAP, your aeronautical weather chart ! - Copyright ORBIFLY December 2007 - Disclaimer

ORBIFLY MET'MAP TEAM :

Programming & Development : Alexandra Zaïnal
Concept & Development : Baudouin d'Aumeries
Co-Development & Prog : Marc-Olivier Méhu
Technical & hardware support : Manuel Goepfert

Contact : metmap@orbifly.com




SOURCES & CREDITS :

   NOAA